Time;durP1;ratioP1;P1;durP2;ratioP2;P2;SDS_P1;SDS_P2;PMS_P1;PMS_P2;Temp;Humidity;BMP_temperature;BMP_pressure;BME280_temperature;BME280_humidity;BME280_pressure;Samples;Min_cycle;Max_cycle;Signal;HPM_P1;HPM_P2
2023/03/23 00:02:14;;;;;;;5.10;2.47;;;;;;;;;;5097551;28;20030;-60
2023/03/23 00:04:39;;;;;;;8.57;2.05;;;;;;;;;;5097769;28;20094;-60
2023/03/23 00:07:05;;;;;;;4.97;2.30;;;;;;;;;;5097374;28;20016;-60
2023/03/23 00:09:34;;;;;;;5.95;2.72;;;;;;;;;;5097812;28;20053;-60
2023/03/23 00:12:04;;;;;;;3.53;2.10;;;;;;;;;;5083246;28;20035;-61
2023/03/23 00:14:40;;;;;;;4.82;2.58;;;;;;;;;;5097226;28;20036;-60
2023/03/23 00:17:06;;;;;;;8.75;2.75;;;;;;;;;;5098455;28;20019;-60
2023/03/23 00:19:32;;;;;;;4.60;2.42;;;;;;;;;;5095532;28;20494;-60
2023/03/23 00:22:00;;;;;;;6.75;3.03;;;;;;;;;;5112127;28;20035;-60
2023/03/23 00:24:25;;;;;;;4.95;2.50;;;;;;;;;;5095960;28;20027;-61
2023/03/23 00:26:52;;;;;;;8.85;1.98;;;;;;;;;;5098728;28;20379;-60
2023/03/23 00:29:19;;;;;;;4.88;2.50;;;;;;;;;;5093590;28;20028;-60
2023/03/23 00:31:48;;;;;;;5.93;2.35;;;;;;;;;;5094440;28;20016;-60
2023/03/23 00:34:20;;;;;;;3.60;2.30;;;;;;;;;;5093615;28;20032;-61
2023/03/23 00:36:56;;;;;;;5.57;3.15;;;;;;;;;;5081376;28;20054;-60
2023/03/23 00:39:24;;;;;;;3.63;2.22;;;;;;;;;;5098025;28;20474;-59
2023/03/23 00:41:49;;;;;;;5.65;2.95;;;;;;;;;;5093102;28;20027;-60
2023/03/23 00:44:16;;;;;;;4.35;2.60;;;;;;;;;;5092402;28;20024;-60
2023/03/23 00:46:48;;;;;;;2.92;1.92;;;;;;;;;;5093017;28;20024;-60
2023/03/23 00:49:14;;;;;;;8.30;2.33;;;;;;;;;;5103217;28;20036;-60
2023/03/23 00:51:40;;;;;;;3.33;2.08;;;;;;;;;;5103518;28;20032;-60
2023/03/23 00:54:05;;;;;;;6.22;2.85;;;;;;;;;;5092958;28;20097;-60
2023/03/23 00:56:30;;;;;;;4.22;1.83;;;;;;;;;;5092850;28;20070;-60
2023/03/23 00:58:56;;;;;;;6.93;2.30;;;;;;;;;;5093004;28;20027;-60
2023/03/23 01:01:21;;;;;;;5.00;2.38;;;;;;;;;;5103493;28;20460;-60
2023/03/23 01:03:46;;;;;;;4.72;2.63;;;;;;;;;;5092720;28;20031;-60
2023/03/23 01:06:12;;;;;;;6.07;2.67;;;;;;;;;;5098545;28;20019;-60
2023/03/23 01:08:44;;;;;;;4.50;2.60;;;;;;;;;;5096165;28;20016;-60
2023/03/23 01:11:11;;;;;;;3.95;2.53;;;;;;;;;;5093533;28;20024;-60
2023/03/23 01:13:36;;;;;;;5.30;2.70;;;;;;;;;;5092441;28;20031;-60
2023/03/23 01:16:02;;;;;;;5.95;2.67;;;;;;;;;;5074998;28;20028;-60
2023/03/23 01:18:27;;;;;;;4.40;2.40;;;;;;;;;;5092691;28;20042;-61
2023/03/23 01:20:52;;;;;;;4.53;2.33;;;;;;;;;;5091931;28;20446;-60
2023/03/23 01:23:17;;;;;;;4.07;2.72;;;;;;;;;;5092565;28;20012;-60
2023/03/23 01:25:44;;;;;;;5.10;2.60;;;;;;;;;;5092657;28;20012;-60
2023/03/23 01:28:10;;;;;;;4.43;2.45;;;;;;;;;;5092025;28;20474;-61
2023/03/23 01:30:35;;;;;;;5.78;3.03;;;;;;;;;;5092425;28;20028;-60
2023/03/23 01:33:01;;;;;;;8.90;3.05;;;;;;;;;;5092408;28;20487;-60
2023/03/23 01:35:26;;;;;;;4.20;2.53;;;;;;;;;;5098511;28;20544;-60
2023/03/23 01:37:51;;;;;;;9.30;3.17;;;;;;;;;;5082245;28;20043;-60
2023/03/23 01:40:16;;;;;;;4.63;2.72;;;;;;;;;;5090025;28;20028;-60
2023/03/23 01:42:42;;;;;;;4.78;2.80;;;;;;;;;;5091661;28;20051;-60
2023/03/23 01:45:19;;;;;;;3.25;2.33;;;;;;;;;;5092498;28;20474;-60
2023/03/23 01:47:50;;;;;;;5.38;2.33;;;;;;;;;;5092433;28;20024;-60
2023/03/23 01:50:16;;;;;;;4.90;3.05;;;;;;;;;;5092296;28;20024;-60
2023/03/23 01:52:41;;;;;;;5.15;2.95;;;;;;;;;;5092702;28;20107;-60
2023/03/23 01:55:07;;;;;;;3.83;2.58;;;;;;;;;;5090779;28;20022;-60
2023/03/23 01:57:33;;;;;;;3.75;2.55;;;;;;;;;;5098663;28;20537;-61
2023/03/23 02:00:06;;;;;;;4.75;3.22;;;;;;;;;;5102921;28;20020;-60
2023/03/23 02:02:35;;;;;;;4.35;2.28;;;;;;;;;;5082353;28;20389;-61
2023/03/23 02:05:02;;;;;;;4.85;2.60;;;;;;;;;;5103520;28;20016;-60
2023/03/23 02:07:27;;;;;;;4.13;2.63;;;;;;;;;;5093309;28;20056;-60
2023/03/23 02:09:53;;;;;;;4.13;2.67;;;;;;;;;;5092072;28;20128;-60
2023/03/23 02:12:18;;;;;;;4.55;2.70;;;;;;;;;;5096221;28;20470;-60
2023/03/23 02:14:43;;;;;;;7.57;3.38;;;;;;;;;;5100458;28;20437;-60
2023/03/23 02:17:16;;;;;;;4.53;3.08;;;;;;;;;;5092476;28;20016;-60
2023/03/23 02:19:51;;;;;;;3.67;2.30;;;;;;;;;;5091719;28;20067;-60
2023/03/23 02:22:16;;;;;;;;;;;;;;;;;;5092756;28;20435;-60
2023/03/23 02:24:44;;;;;;;4.45;3.08;;;;;;;;;;5091549;28;19942;-60
2023/03/23 02:27:25;;;;;;;4.72;2.65;;;;;;;;;;5076660;28;20028;-60
2023/03/23 02:30:02;;;;;;;4.85;2.40;;;;;;;;;;5103216;28;20128;-60
2023/03/23 02:32:39;;;;;;;4.82;2.40;;;;;;;;;;5095033;28;20031;-63
2023/03/23 02:35:19;;;;;;;9.18;3.22;;;;;;;;;;5095336;28;20089;-60
2023/03/23 02:38:11;;;;;;;4.15;2.60;;;;;;;;;;5095353;28;20047;-60
2023/03/23 02:40:39;;;;;;;4.50;2.38;;;;;;;;;;5090491;28;20088;-60
2023/03/23 02:43:07;;;;;;;4.82;2.50;;;;;;;;;;5094677;28;20016;-60
2023/03/23 02:45:33;;;;;;;4.07;2.45;;;;;;;;;;5095193;28;20016;-60
2023/03/23 02:48:01;;;;;;;4.47;2.50;;;;;;;;;;5095201;28;20027;-60
2023/03/23 02:50:27;;;;;;;7.43;2.63;;;;;;;;;;5095371;28;20032;-59
2023/03/23 02:52:54;;;;;;;6.45;3.20;;;;;;;;;;5103463;28;20489;-59
2023/03/23 02:55:22;;;;;;;6.25;2.88;;;;;;;;;;5095067;28;20099;-60
2023/03/23 02:57:48;;;;;;;5.57;2.47;;;;;;;;;;5094954;28;20031;-60
2023/03/23 03:00:15;;;;;;;4.38;2.70;;;;;;;;;;5105284;28;20027;-60
2023/03/23 03:02:42;;;;;;;7.43;2.40;;;;;;;;;;5095035;28;20024;-60
2023/03/23 03:05:34;;;;;;;8.13;2.45;;;;;;;;;;5107355;28;20019;-60
2023/03/23 03:08:00;;;;;;;4.20;2.40;;;;;;;;;;5094263;28;20471;-60
2023/03/23 03:10:25;;;;;;;7.28;2.33;;;;;;;;;;5094603;28;20028;-60
2023/03/23 03:13:03;;;;;;;4.55;2.60;;;;;;;;;;5094861;28;20016;-60
2023/03/23 03:15:28;;;;;;;3.60;2.55;;;;;;;;;;5064516;28;20028;-60
2023/03/23 03:17:58;;;;;;;4.37;2.23;;;;;;;;;;5060573;28;20020;-60
2023/03/23 03:20:26;;;;;;;7.13;2.25;;;;;;;;;;5062357;28;20284;-61
2023/03/23 03:22:52;;;;;;;3.70;2.15;;;;;;;;;;5068375;28;20018;-60
2023/03/23 03:25:19;;;;;;;4.18;2.30;;;;;;;;;;5078486;28;20031;-60
2023/03/23 03:27:49;;;;;;;3.35;1.95;;;;;;;;;;5103793;28;20031;-59
2023/03/23 03:30:17;;;;;;;3.10;1.77;;;;;;;;;;5105342;28;20504;-59
2023/03/23 03:32:48;;;;;;;5.82;2.22;;;;;;;;;;5094329;28;20479;-60
2023/03/23 03:35:14;;;;;;;3.42;2.05;;;;;;;;;;5094808;28;20056;-60
2023/03/23 03:37:39;;;;;;;4.30;2.58;;;;;;;;;;5094435;28;20113;-60
2023/03/23 03:40:10;;;;;;;4.50;2.22;;;;;;;;;;5096784;28;20028;-60
2023/03/23 03:42:36;;;;;;;3.15;1.92;;;;;;;;;;5104167;28;20489;-60
2023/03/23 03:45:01;;;;;;;4.10;2.65;;;;;;;;;;5094290;28;20019;-60
2023/03/23 03:47:26;;;;;;;5.00;2.42;;;;;;;;;;5101586;28;20055;-60
2023/03/23 03:49:51;;;;;;;3.47;2.35;;;;;;;;;;5093731;28;20028;-60
2023/03/23 03:52:17;;;;;;;4.95;2.78;;;;;;;;;;5094023;28;20511;-60
2023/03/23 03:54:42;;;;;;;7.03;2.63;;;;;;;;;;5093718;28;20027;-60
2023/03/23 03:57:07;;;;;;;4.55;2.10;;;;;;;;;;5100833;28;20020;-60
2023/03/23 03:59:33;;;;;;;3.80;2.03;;;;;;;;;;5093998;28;20016;-60
2023/03/23 04:01:58;;;;;;;6.13;2.28;;;;;;;;;;5093638;28;20056;-60
2023/03/23 04:04:23;;;;;;;3.40;2.20;;;;;;;;;;5094667;28;20032;-60
2023/03/23 04:06:49;;;;;;;3.33;2.17;;;;;;;;;;5094004;28;20028;-60
2023/03/23 04:09:14;;;;;;;3.65;1.85;;;;;;;;;;5081151;28;20031;-60
2023/03/23 04:11:39;;;;;;;4.45;2.08;;;;;;;;;;5053534;28;20027;-60
2023/03/23 04:14:05;;;;;;;3.22;1.80;;;;;;;;;;5057295;28;20044;-60
2023/03/23 04:16:30;;;;;;;4.28;2.20;;;;;;;;;;5054641;28;20020;-60
2023/03/23 04:18:56;;;;;;;3.28;1.70;;;;;;;;;;5052839;28;20016;-60
2023/03/23 04:21:21;;;;;;;5.07;2.30;;;;;;;;;;5054211;28;20159;-60
2023/03/23 04:23:46;;;;;;;4.10;2.05;;;;;;;;;;5067619;28;20036;-60
2023/03/23 04:26:12;;;;;;;4.20;2.42;;;;;;;;;;5056266;28;20151;-60
2023/03/23 04:28:38;;;;;;;3.88;1.98;;;;;;;;;;5056970;28;20022;-60
2023/03/23 04:31:03;;;;;;;3.22;1.85;;;;;;;;;;5064677;28;20936;-60
2023/03/23 04:33:29;;;;;;;9.45;2.20;;;;;;;;;;5066178;28;20028;-60
2023/03/23 04:35:56;;;;;;;3.88;2.10;;;;;;;;;;5079112;28;20039;-60
2023/03/23 04:38:23;;;;;;;4.03;2.28;;;;;;;;;;5089585;28;20463;-60
2023/03/23 04:40:52;;;;;;;4.00;2.03;;;;;;;;;;5092957;28;20465;-60
2023/03/23 04:43:24;;;;;;;3.88;1.73;;;;;;;;;;5088055;28;20030;-60
2023/03/23 04:45:59;;;;;;;3.80;1.83;;;;;;;;;;5089546;28;20051;-60
2023/03/23 04:48:26;;;;;;;4.47;1.77;;;;;;;;;;5097614;28;20020;-60
2023/03/23 04:50:52;;;;;;;3.60;1.40;;;;;;;;;;5092721;28;20028;-60
2023/03/23 04:53:17;;;;;;;5.47;2.08;;;;;;;;;;5102649;28;20027;-60
2023/03/23 04:55:43;;;;;;;3.70;2.05;;;;;;;;;;5095117;28;20028;-60
2023/03/23 04:58:08;;;;;;;3.60;1.58;;;;;;;;;;5093296;28;20091;-60
2023/03/23 05:00:34;;;;;;;3.08;1.63;;;;;;;;;;5092406;28;20028;-60
2023/03/23 05:03:00;;;;;;;5.90;1.95;;;;;;;;;;5093173;28;20080;-60
2023/03/23 05:05:27;;;;;;;5.07;2.28;;;;;;;;;;5106260;28;20026;-60
2023/03/23 05:07:52;;;;;;;3.90;1.60;;;;;;;;;;5092596;28;20042;-60
2023/03/23 05:10:18;;;;;;;6.13;2.17;;;;;;;;;;5103653;28;20103;-61
2023/03/23 05:12:44;;;;;;;4.53;2.58;;;;;;;;;;5104981;28;20024;-60
2023/03/23 05:15:10;;;;;;;6.72;2.22;;;;;;;;;;5092556;28;20023;-61
2023/03/23 05:17:36;;;;;;;3.80;1.83;;;;;;;;;;5096900;28;20028;-60
2023/03/23 05:20:08;;;;;;;8.02;2.35;;;;;;;;;;5101349;28;20031;-60
2023/03/23 05:22:33;;;;;;;8.95;2.63;;;;;;;;;;5074164;28;20390;-60
2023/03/23 05:24:59;;;;;;;6.35;2.28;;;;;;;;;;5092641;28;20031;-60
2023/03/23 05:27:27;;;;;;;4.40;2.08;;;;;;;;;;5092452;28;20074;-60
2023/03/23 05:29:53;;;;;;;4.57;2.22;;;;;;;;;;5091830;28;20035;-60
2023/03/23 05:32:20;;;;;;;6.28;2.20;;;;;;;;;;5092089;28;20024;-60
2023/03/23 05:34:46;;;;;;;4.45;1.95;;;;;;;;;;5092325;28;20024;-60
2023/03/23 05:37:11;;;;;;;10.13;2.08;;;;;;;;;;5093178;28;20024;-59
2023/03/23 05:39:37;;;;;;;3.83;1.85;;;;;;;;;;5092356;28;20052;-60
2023/03/23 05:42:04;;;;;;;8.57;2.67;;;;;;;;;;5092293;28;20020;-60
2023/03/23 05:44:29;;;;;;;5.53;1.65;;;;;;;;;;5092786;28;20024;-60
2023/03/23 05:46:55;;;;;;;6.53;1.75;;;;;;;;;;5105051;28;20027;-60
2023/03/23 05:49:20;;;;;;;6.55;2.00;;;;;;;;;;5092307;28;20119;-60
2023/03/23 05:51:45;;;;;;;5.68;1.70;;;;;;;;;;5092944;28;20482;-60
2023/03/23 05:54:11;;;;;;;8.88;1.92;;;;;;;;;;5091909;28;20032;-60
2023/03/23 05:56:36;;;;;;;5.38;2.15;;;;;;;;;;5092225;28;20024;-61
2023/03/23 05:59:02;;;;;;;4.22;2.05;;;;;;;;;;5091982;28;20482;-60
2023/03/23 06:01:28;;;;;;;4.22;2.28;;;;;;;;;;5103355;28;20165;-60
2023/03/23 06:03:53;;;;;;;4.35;1.42;;;;;;;;;;5091619;28;20023;-59
2023/03/23 06:06:20;;;;;;;8.02;1.92;;;;;;;;;;5099474;28;20022;-60
2023/03/23 06:08:45;;;;;;;3.72;1.73;;;;;;;;;;5110489;28;20017;-60
2023/03/23 06:11:10;;;;;;;5.72;2.13;;;;;;;;;;5113096;28;20355;-60
2023/03/23 06:13:36;;;;;;;4.35;2.10;;;;;;;;;;5104045;28;20109;-60
2023/03/23 06:16:02;;;;;;;4.53;2.10;;;;;;;;;;5095102;28;20474;-60
2023/03/23 06:18:28;;;;;;;3.42;1.90;;;;;;;;;;5095327;28;20034;-60
2023/03/23 06:20:53;;;;;;;4.00;1.70;;;;;;;;;;5095264;28;20020;-61
2023/03/23 06:23:18;;;;;;;5.88;1.83;;;;;;;;;;5095170;28;20032;-60
2023/03/23 06:25:44;;;;;;;8.40;2.65;;;;;;;;;;5095427;28;20020;-60
2023/03/23 06:28:10;;;;;;;3.88;2.17;;;;;;;;;;5094769;28;20024;-61
2023/03/23 06:30:36;;;;;;;4.90;1.70;;;;;;;;;;5097527;28;20024;-60
2023/03/23 06:33:05;;;;;;;4.40;1.55;;;;;;;;;;5096122;28;20047;-60
2023/03/23 06:35:30;;;;;;;4.55;1.85;;;;;;;;;;5095211;28;20032;-60
2023/03/23 06:37:58;;;;;;;6.07;2.15;;;;;;;;;;5097869;28;20472;-60
2023/03/23 06:40:23;;;;;;;4.38;2.15;;;;;;;;;;5095847;28;20024;-60
2023/03/23 06:42:48;;;;;;;4.53;1.80;;;;;;;;;;5100287;28;20386;-60
2023/03/23 06:45:14;;;;;;;9.55;2.28;;;;;;;;;;5095200;28;20088;-60
2023/03/23 06:47:39;;;;;;;4.03;1.65;;;;;;;;;;5095864;28;20035;-60
2023/03/23 06:50:05;;;;;;;7.35;1.80;;;;;;;;;;5097506;28;20459;-60
2023/03/23 06:52:30;;;;;;;4.88;1.70;;;;;;;;;;5095027;28;20020;-60
2023/03/23 06:54:55;;;;;;;3.53;1.70;;;;;;;;;;5094566;28;20530;-60
2023/03/23 06:57:21;;;;;;;3.92;1.92;;;;;;;;;;5094563;28;20027;-61
2023/03/23 06:59:46;;;;;;;4.60;1.55;;;;;;;;;;5097279;28;20091;-60
2023/03/23 07:02:12;;;;;;;7.88;2.05;;;;;;;;;;5094876;28;20020;-60
2023/03/23 07:04:38;;;;;;;4.82;2.40;;;;;;;;;;5105514;28;20030;-60
2023/03/23 07:07:03;;;;;;;7.10;1.75;;;;;;;;;;5109299;28;20453;-60
2023/03/23 07:09:29;;;;;;;6.53;1.55;;;;;;;;;;5094482;28;20394;-60
2023/03/23 07:11:54;;;;;;;5.10;1.92;;;;;;;;;;5094504;28;20470;-60
2023/03/23 07:14:21;;;;;;;2.92;1.55;;;;;;;;;;5097096;28;20485;-60
2023/03/23 07:16:47;;;;;;;2.20;1.13;;;;;;;;;;5095051;28;20413;-61
2023/03/23 07:19:12;;;;;;;3.72;1.88;;;;;;;;;;5093471;28;20115;-60
2023/03/23 07:21:37;;;;;;;6.35;2.00;;;;;;;;;;5093591;28;20012;-60
2023/03/23 07:24:03;;;;;;;3.55;1.65;;;;;;;;;;5093553;28;20022;-60
2023/03/23 07:26:28;;;;;;;4.97;1.83;;;;;;;;;;5099251;28;20466;-61
2023/03/23 07:28:53;;;;;;;5.70;2.13;;;;;;;;;;5096516;28;20473;-61
2023/03/23 07:31:18;;;;;;;6.57;2.13;;;;;;;;;;5096443;28;20104;-60
2023/03/23 07:33:44;;;;;;;5.38;1.73;;;;;;;;;;5094214;28;20027;-61
2023/03/23 07:36:09;;;;;;;4.57;1.90;;;;;;;;;;5091592;28;20032;-60
2023/03/23 07:38:35;;;;;;;3.83;1.73;;;;;;;;;;5062491;28;20827;-60
2023/03/23 07:41:01;;;;;;;6.75;1.88;;;;;;;;;;5064707;28;20030;-60
2023/03/23 07:43:26;;;;;;;8.02;1.85;;;;;;;;;;5048023;28;20028;-60
2023/03/23 07:45:52;;;;;;;4.38;1.48;;;;;;;;;;5057636;28;20032;-60
2023/03/23 07:48:17;;;;;;;7.55;2.63;;;;;;;;;;5065721;28;20038;-61
2023/03/23 07:50:43;;;;;;;4.97;1.92;;;;;;;;;;5062308;28;20024;-61
2023/03/23 07:53:08;;;;;;;6.15;2.03;;;;;;;;;;5066143;28;20019;-60
2023/03/23 07:55:34;;;;;;;3.53;1.73;;;;;;;;;;5069509;28;20486;-60
2023/03/23 07:57:59;;;;;;;4.35;2.03;;;;;;;;;;5057937;28;20020;-60
2023/03/23 08:00:24;;;;;;;6.07;2.00;;;;;;;;;;5054594;28;20012;-60
2023/03/23 08:02:51;;;;;;;4.63;2.17;;;;;;;;;;5054318;28;20023;-60
2023/03/23 08:05:17;;;;;;;5.35;1.67;;;;;;;;;;5048326;28;20157;-60
2023/03/23 08:07:43;;;;;;;7.55;2.20;;;;;;;;;;5052932;28;20038;-61
2023/03/23 08:10:12;;;;;;;4.53;2.10;;;;;;;;;;5061124;28;20915;-60
2023/03/23 08:12:41;;;;;;;7.07;2.17;;;;;;;;;;5051325;28;20097;-60
2023/03/23 08:15:07;;;;;;;5.85;2.15;;;;;;;;;;5058032;28;20012;-60
2023/03/23 08:17:34;;;;;;;7.20;2.35;;;;;;;;;;5053962;28;20865;-60
2023/03/23 08:19:59;;;;;;;4.63;1.45;;;;;;;;;;5055448;28;20016;-60
2023/03/23 08:22:24;;;;;;;8.30;2.40;;;;;;;;;;5093674;28;20073;-60
2023/03/23 08:24:50;;;;;;;5.55;2.35;;;;;;;;;;5065017;28;20014;-60
2023/03/23 08:27:15;;;;;;;4.88;2.00;;;;;;;;;;5057686;28;20052;-60
2023/03/23 08:29:40;;;;;;;5.93;1.75;;;;;;;;;;5060498;28;20090;-60
2023/03/23 08:32:06;;;;;;;6.07;1.90;;;;;;;;;;5093865;28;20512;-61
2023/03/23 08:34:32;;;;;;;5.05;1.80;;;;;;;;;;5082917;28;20024;-60
2023/03/23 08:36:57;;;;;;;3.50;1.67;;;;;;;;;;5095293;28;20080;-61
2023/03/23 08:39:23;;;;;;;7.38;1.83;;;;;;;;;;5092344;28;20487;-61
2023/03/23 08:41:48;;;;;;;4.53;1.73;;;;;;;;;;5097328;28;20024;-60
2023/03/23 08:44:14;;;;;;;6.18;1.67;;;;;;;;;;5057259;28;20044;-60
2023/03/23 08:46:39;;;;;;;9.85;2.00;;;;;;;;;;5069596;28;20061;-60
2023/03/23 08:49:05;;;;;;;4.50;2.10;;;;;;;;;;5053211;28;20917;-60
2023/03/23 08:51:31;;;;;;;5.60;1.25;;;;;;;;;;5059012;28;20012;-61
2023/03/23 08:53:56;;;;;;;1.42;0.45;;;;;;;;;;5053671;28;20024;-61
2023/03/23 08:56:22;;;;;;;5.00;0.90;;;;;;;;;;5059845;28;20846;-61
2023/03/23 08:58:48;;;;;;;2.13;0.52;;;;;;;;;;5064432;28;20042;-60
2023/03/23 09:01:14;;;;;;;1.65;0.60;;;;;;;;;;5061586;28;20027;-60
2023/03/23 09:03:40;;;;;;;1.90;0.50;;;;;;;;;;5078380;28;20497;-61
2023/03/23 09:06:06;;;;;;;2.15;0.52;;;;;;;;;;5054285;28;20076;-61
2023/03/23 09:08:31;;;;;;;4.43;1.00;;;;;;;;;;5071190;28;20416;-60
2023/03/23 09:11:00;;;;;;;2.33;0.88;;;;;;;;;;5105691;28;20032;-60
2023/03/23 09:13:26;;;;;;;2.85;1.05;;;;;;;;;;5091495;28;20063;-60
2023/03/23 09:15:51;;;;;;;2.20;0.93;;;;;;;;;;5074655;28;20119;-60
2023/03/23 09:18:18;;;;;;;2.33;1.00;;;;;;;;;;5100561;28;20424;-60
2023/03/23 09:20:43;;;;;;;2.25;1.05;;;;;;;;;;5092069;28;20470;-60
2023/03/23 09:23:08;;;;;;;2.63;1.00;;;;;;;;;;5092146;28;20019;-61
2023/03/23 09:25:34;;;;;;;4.30;1.35;;;;;;;;;;5094102;28;20028;-60
2023/03/23 09:27:59;;;;;;;1.48;0.80;;;;;;;;;;5054567;28;21015;-61
2023/03/23 09:30:26;;;;;;;3.25;0.93;;;;;;;;;;5048226;28;20028;-61
2023/03/23 09:32:52;;;;;;;2.38;0.80;;;;;;;;;;5060216;28;20035;-60
2023/03/23 09:35:21;;;;;;;4.20;1.15;;;;;;;;;;5055408;28;20401;-61
2023/03/23 09:37:47;;;;;;;2.63;1.10;;;;;;;;;;5072770;28;20015;-65
2023/03/23 09:40:19;;;;;;;3.45;1.10;;;;;;;;;;5093704;28;20390;-62
2023/03/23 09:43:03;;;;;;;2.92;1.40;;;;;;;;;;5095511;28;20471;-62
2023/03/23 09:45:37;;;;;;;2.67;1.33;;;;;;;;;;5105049;28;20048;-60
2023/03/23 09:48:08;;;;;;;5.78;1.30;;;;;;;;;;5091733;28;20023;-61
2023/03/23 09:50:37;;;;;;;3.38;1.40;;;;;;;;;;5056949;28;21043;-61
2023/03/23 09:53:15;;;;;;;4.03;1.40;;;;;;;;;;5078650;28;20027;-61
2023/03/23 09:55:41;;;;;;;3.47;1.40;;;;;;;;;;5064920;28;20031;-61
2023/03/23 09:58:16;;;;;;;5.43;1.73;;;;;;;;;;5035278;28;20032;-62
2023/03/23 10:00:55;;;;;;;2.80;1.05;;;;;;;;;;5070915;28;20106;-61
2023/03/23 10:03:23;;;;;;;8.05;1.77;;;;;;;;;;5069714;28;20037;-61
2023/03/23 10:05:49;;;;;;;4.45;1.95;;;;;;;;;;5088738;28;20046;-60
2023/03/23 10:08:19;;;;;;;2.45;1.00;;;;;;;;;;5074667;28;20108;-61
2023/03/23 10:10:57;;;;;;;5.03;1.73;;;;;;;;;;5071712;28;20032;-63
2023/03/23 10:13:43;;;;;;;8.10;1.70;;;;;;;;;;5076434;28;20027;-61
2023/03/23 10:16:14;;;;;;;4.53;1.95;;;;;;;;;;5077175;28;20040;-61
2023/03/23 10:18:39;;;;;;;4.25;2.00;;;;;;;;;;5067679;28;20538;-61
2023/03/23 10:21:05;;;;;;;4.50;2.58;;;;;;;;;;5081980;28;20028;-62
2023/03/23 10:23:36;;;;;;;6.85;3.10;;;;;;;;;;5072357;28;20158;-61
2023/03/23 10:26:08;;;;;;;6.35;2.95;;;;;;;;;;5079394;28;20028;-61
2023/03/23 10:28:42;;;;;;;5.35;2.47;;;;;;;;;;5065625;28;20044;-64
2023/03/23 10:31:10;;;;;;;5.55;2.65;;;;;;;;;;5080183;28;20382;-61
2023/03/23 10:33:35;;;;;;;6.60;2.80;;;;;;;;;;5050267;28;20036;-62
2023/03/23 10:36:10;;;;;;;13.63;2.55;;;;;;;;;;5039095;28;20020;-62
2023/03/23 10:38:35;;;;;;;;;;;;;;;;;;5035692;28;20020;-61
2023/03/23 10:41:09;;;;;;;4.50;2.40;;;;;;;;;;5037395;28;20802;-61
2023/03/23 10:43:35;;;;;;;4.25;2.47;;;;;;;;;;5053778;28;20028;-61
2023/03/23 10:46:02;;;;;;;5.90;2.40;;;;;;;;;;5071568;28;20031;-61
2023/03/23 10:48:33;;;;;;;7.72;2.88;;;;;;;;;;5046219;28;20062;-61
2023/03/23 10:51:02;;;;;;;3.60;2.28;;;;;;;;;;5077650;28;20564;-61
2023/03/23 10:53:34;;;;;;;5.05;2.38;;;;;;;;;;5078003;28;20028;-62
2023/03/23 10:56:00;;;;;;;4.38;2.47;;;;;;;;;;5080908;28;20036;-61
2023/03/23 10:58:28;;;;;;;6.00;2.92;;;;;;;;;;5076258;28;20028;-61
2023/03/23 11:00:54;;;;;;;9.77;3.45;;;;;;;;;;5079802;28;20020;-61
2023/03/23 11:03:25;;;;;;;6.28;3.08;;;;;;;;;;5074512;28;20062;-61
2023/03/23 11:05:52;;;;;;;7.82;3.28;;;;;;;;;;5073806;28;20035;-61
2023/03/23 11:08:19;;;;;;;7.00;3.42;;;;;;;;;;5072730;28;20070;-61
2023/03/23 11:10:50;;;;;;;6.40;3.45;;;;;;;;;;5045265;28;20135;-61
2023/03/23 11:13:17;;;;;;;5.03;3.03;;;;;;;;;;5046401;28;20042;-61
2023/03/23 11:15:45;;;;;;;6.30;2.92;;;;;;;;;;5052352;28;20928;-62
2023/03/23 11:18:21;;;;;;;5.43;2.97;;;;;;;;;;5033722;28;20067;-62
2023/03/23 11:20:50;;;;;;;6.32;2.47;;;;;;;;;;5044836;28;20135;-62
2023/03/23 11:23:23;;;;;;;4.90;2.58;;;;;;;;;;5037692;28;20040;-63
2023/03/23 11:25:56;;;;;;;4.40;2.63;;;;;;;;;;5088942;28;20025;-62
2023/03/23 11:28:25;;;;;;;5.95;2.22;;;;;;;;;;5063936;28;20028;-62
2023/03/23 11:30:52;;;;;;;3.83;1.92;;;;;;;;;;5073608;28;20417;-62
2023/03/23 11:33:19;;;;;;;6.25;2.45;;;;;;;;;;5086055;28;20446;-62
2023/03/23 11:35:45;;;;;;;5.05;2.00;;;;;;;;;;5070137;28;20433;-62
2023/03/23 11:38:21;;;;;;;5.60;2.30;;;;;;;;;;5082262;28;20097;-62
2023/03/23 11:40:51;;;;;;;7.18;2.25;;;;;;;;;;5073940;28;20024;-62
2023/03/23 11:43:24;;;;;;;6.18;2.20;;;;;;;;;;5080672;28;20028;-62
2023/03/23 11:45:59;;;;;;;3.42;1.95;;;;;;;;;;5074087;28;20035;-63
2023/03/23 11:48:33;;;;;;;4.15;1.98;;;;;;;;;;5075972;28;20029;-63
2023/03/23 11:51:11;;;;;;;3.53;1.40;;;;;;;;;;5074672;28;20086;-62
2023/03/23 11:53:53;;;;;;;6.00;2.38;;;;;;;;;;5079177;28;20081;-62
2023/03/23 11:56:24;;;;;;;6.50;3.25;;;;;;;;;;5074393;28;20146;-62
2023/03/23 11:58:50;;;;;;;5.88;3.10;;;;;;;;;;5062776;28;20462;-62
2023/03/23 12:01:34;;;;;;;5.90;3.85;;;;;;;;;;5087147;28;20024;-62
2023/03/23 12:04:03;;;;;;;5.47;3.43;;;;;;;;;;5075394;28;20867;-62
2023/03/23 12:06:28;;;;;;;4.03;2.15;;;;;;;;;;5073984;28;20270;-62
2023/03/23 12:08:58;;;;;;;5.90;2.40;;;;;;;;;;5049772;28;20071;-62
2023/03/23 12:11:33;;;;;;;4.97;2.60;;;;;;;;;;5053368;28;20289;-62
2023/03/23 12:14:15;;;;;;;5.50;2.13;;;;;;;;;;5041491;28;20031;-62
2023/03/23 12:16:52;;;;;;;4.47;1.90;;;;;;;;;;5036821;28;20098;-62
2023/03/23 12:19:37;;;;;;;3.55;2.10;;;;;;;;;;5076964;28;20036;-62
2023/03/23 12:22:03;;;;;;;7.90;2.00;;;;;;;;;;5074530;28;20024;-62
2023/03/23 12:24:46;;;;;;;3.70;1.92;;;;;;;;;;5075932;28;20483;-62
2023/03/23 12:27:30;;;;;;;8.57;2.47;;;;;;;;;;5081973;28;20028;-62
2023/03/23 12:30:06;;;;;;;6.00;3.10;;;;;;;;;;5072635;28;20028;-62
2023/03/23 12:32:34;;;;;;;4.32;2.35;;;;;;;;;;5070472;28;20162;-63
2023/03/23 12:35:17;;;;;;;6.05;2.85;;;;;;;;;;5067390;28;20360;-62
2023/03/23 12:37:42;;;;;;;7.07;2.85;;;;;;;;;;5069074;28;20051;-63
2023/03/23 12:40:28;;;;;;;7.90;3.05;;;;;;;;;;5068040;28;20052;-63
2023/03/23 12:43:20;;;;;;;6.43;3.38;;;;;;;;;;5076691;28;20024;-63
2023/03/23 12:45:52;;;;;;;6.72;2.80;;;;;;;;;;5044519;28;20058;-62
2023/03/23 12:48:25;;;;;;;6.05;3.33;;;;;;;;;;5076443;28;20028;-65
2023/03/23 12:51:03;;;;;;;6.17;3.10;;;;;;;;;;5077325;28;20035;-62
2023/03/23 12:53:35;;;;;;;6.03;2.90;;;;;;;;;;5069214;28;20028;-63
2023/03/23 12:56:33;;;;;;;5.53;2.78;;;;;;;;;;5072684;28;20021;-65
2023/03/23 12:59:07;;;;;;;6.13;2.88;;;;;;;;;;5019796;28;20078;-62
2023/03/23 13:01:34;;;;;;;5.32;2.50;;;;;;;;;;5072645;28;20036;-61
2023/03/23 13:04:04;;;;;;;5.45;2.50;;;;;;;;;;5055089;28;20078;-60
2023/03/23 13:06:46;;;;;;;5.07;2.38;;;;;;;;;;5091575;28;20034;-61
2023/03/23 13:09:21;;;;;;;6.75;2.58;;;;;;;;;;5079468;28;20491;-61
2023/03/23 13:11:47;;;;;;;5.40;2.05;;;;;;;;;;5078958;28;20029;-61
2023/03/23 13:14:18;;;;;;;3.88;1.75;;;;;;;;;;5071729;28;20029;-60
2023/03/23 13:16:55;;;;;;;8.30;2.25;;;;;;;;;;5073309;28;20050;-62
2023/03/23 13:19:28;;;;;;;4.22;1.90;;;;;;;;;;5078253;28;20126;-62
2023/03/23 13:22:04;;;;;;;4.15;1.83;;;;;;;;;;5088063;28;20020;-61
2023/03/23 13:24:31;;;;;;;4.15;1.90;;;;;;;;;;5077248;28;20016;-61
2023/03/23 13:26:58;;;;;;;4.07;1.95;;;;;;;;;;5083585;28;20060;-61
2023/03/23 13:29:27;;;;;;;5.20;2.22;;;;;;;;;;5070253;28;20040;-61
2023/03/23 13:32:04;;;;;;;5.90;2.38;;;;;;;;;;5078081;28;20023;-61
2023/03/23 13:34:30;;;;;;;6.88;2.10;;;;;;;;;;5073081;28;20020;-61
2023/03/23 13:37:16;;;;;;;6.50;2.40;;;;;;;;;;5062206;28;20706;-61
2023/03/23 13:39:55;;;;;;;3.53;1.65;;;;;;;;;;5061066;28;20490;-60
2023/03/23 13:42:22;;;;;;;3.55;2.03;;;;;;;;;;5073493;28;20432;-60
2023/03/23 13:44:48;;;;;;;4.05;1.98;;;;;;;;;;5073489;28;20032;-60
2023/03/23 13:47:22;;;;;;;5.88;2.55;;;;;;;;;;5074376;28;20078;-60
2023/03/23 13:49:51;;;;;;;8.63;2.45;;;;;;;;;;5071889;28;20029;-59
2023/03/23 13:52:22;;;;;;;6.40;2.55;;;;;;;;;;5072576;28;20420;-60
2023/03/23 13:54:48;;;;;;;5.97;2.45;;;;;;;;;;5074541;28;20483;-61
2023/03/23 13:57:39;;;;;;;5.47;2.63;;;;;;;;;;5077037;28;20038;-60
2023/03/23 14:00:24;;;;;;;7.05;2.78;;;;;;;;;;5074322;28;20036;-60
2023/03/23 14:02:49;;;;;;;7.75;3.45;;;;;;;;;;5072999;28;20051;-61
2023/03/23 14:05:17;;;;;;;5.10;3.08;;;;;;;;;;5072946;28;20105;-61
2023/03/23 14:07:53;;;;;;;7.45;3.22;;;;;;;;;;5081303;28;20099;-62
2023/03/23 14:10:18;;;;;;;13.90;3.25;;;;;;;;;;5077209;28;20043;-62
2023/03/23 14:12:45;;;;;;;8.45;4.45;;;;;;;;;;5070309;28;20102;-60
2023/03/23 14:15:14;;;;;;;6.93;3.25;;;;;;;;;;5074540;28;20021;-61
2023/03/23 14:17:43;;;;;;;7.60;4.55;;;;;;;;;;5075815;28;20054;-61
2023/03/23 14:20:29;;;;;;;6.90;4.00;;;;;;;;;;5074474;28;20086;-58
2023/03/23 14:22:56;;;;;;;6.22;3.20;;;;;;;;;;5071155;28;20031;-62
2023/03/23 14:25:23;;;;;;;7.03;3.35;;;;;;;;;;5075480;28;20115;-64
2023/03/23 14:27:50;;;;;;;8.60;3.75;;;;;;;;;;5073761;28;20082;-63
2023/03/23 14:30:18;;;;;;;8.82;3.08;;;;;;;;;;5074748;28;20115;-61
2023/03/23 14:32:43;;;;;;;5.65;3.03;;;;;;;;;;5074487;28;20073;-61
2023/03/23 14:35:13;;;;;;;4.68;2.63;;;;;;;;;;5074290;28;20025;-61
2023/03/23 14:37:39;;;;;;;6.15;2.78;;;;;;;;;;5073817;28;20031;-60
2023/03/23 14:40:06;;;;;;;8.02;3.20;;;;;;;;;;5074932;28;20111;-61
2023/03/23 14:42:33;;;;;;;6.05;2.53;;;;;;;;;;5079018;28;20459;-61
2023/03/23 14:44:59;;;;;;;8.70;2.80;;;;;;;;;;5076566;28;20078;-62
2023/03/23 14:47:28;;;;;;;7.65;3.28;;;;;;;;;;5076515;28;20082;-61
2023/03/23 14:49:58;;;;;;;6.90;2.85;;;;;;;;;;5075537;28;20075;-60
2023/03/23 14:52:25;;;;;;;11.65;2.97;;;;;;;;;;5076629;28;20028;-60